Time;durP1;ratioP1;P1;durP2;ratioP2;P2;SDS_P1;SDS_P2;PMS_P1;PMS_P2;Temp;Humidity;BMP_temperature;BMP_pressure;BME280_temperature;BME280_humidity;BME280_pressure;Samples;Min_cycle;Max_cycle;Signal;HPM_P1;HPM_P2
2022/07/08 00:00:46;;;;;;;9.82;2.40;;;;;;;16.05;46.88;101092.69;10466656;28;20304;-67
2022/07/08 00:05:47;;;;;;;10.73;2.28;;;;;;;16.00;46.92;101099.19;10468557;28;20558;-66
2022/07/08 00:10:49;;;;;;;9.68;2.30;;;;;;;16.04;47.22;101100.72;10469054;28;20080;-66
2022/07/08 00:15:51;;;;;;;6.88;2.13;;;;;;;16.02;47.17;101100.78;10469253;28;20098;-66
2022/07/08 00:20:52;;;;;;;9.02;2.40;;;;;;;15.85;46.99;101101.03;10468720;28;20143;-66
2022/07/08 00:25:54;;;;;;;9.57;2.25;;;;;;;15.69;47.49;101092.38;10468520;28;20842;-66
2022/07/08 00:30:56;;;;;;;6.90;1.80;;;;;;;15.54;47.37;101095.97;10467949;28;20548;-67
2022/07/08 00:35:58;;;;;;;9.18;2.20;;;;;;;15.39;47.77;101091.59;10467372;28;20092;-67
2022/07/08 00:40:59;;;;;;;6.47;1.83;;;;;;;15.13;48.31;101103.72;10469050;28;20163;-66
2022/07/08 00:46:01;;;;;;;9.07;2.40;;;;;;;14.87;48.66;101108.84;10467044;28;20044;-66
2022/07/08 00:51:07;;;;;;;8.88;2.28;;;;;;;14.94;48.62;101110.19;10466889;28;20627;-67
2022/07/08 00:56:10;;;;;;;9.50;2.17;;;;;;;15.04;48.61;101104.25;10466707;28;20128;-66
2022/07/08 01:01:11;;;;;;;9.77;2.28;;;;;;;15.07;49.45;101109.34;10465502;28;20133;-66
2022/07/08 01:06:13;;;;;;;9.98;2.30;;;;;;;14.95;49.84;101117.13;10466474;28;20057;-66
2022/07/08 01:11:15;;;;;;;8.20;2.20;;;;;;;14.69;50.35;101116.03;10465674;28;20133;-66
2022/07/08 01:16:17;;;;;;;9.32;2.20;;;;;;;14.56;50.17;101115.88;10464830;28;21032;-66
2022/07/08 01:21:19;;;;;;;10.48;2.30;;;;;;;14.52;50.36;101122.28;10440581;28;20127;-66
2022/07/08 01:26:21;;;;;;;13.05;2.22;;;;;;;14.42;50.34;101122.84;10464666;28;20048;-67
2022/07/08 01:31:23;;;;;;;9.07;2.40;;;;;;;14.32;50.71;101121.66;10466672;28;20139;-67
2022/07/08 01:36:25;;;;;;;9.32;2.10;;;;;;;14.22;50.88;101126.59;10463809;28;20124;-66
2022/07/08 01:41:27;;;;;;;11.88;2.22;;;;;;;14.35;50.90;101127.59;10465650;28;20129;-66
2022/07/08 01:46:28;;;;;;;6.95;2.03;;;;;;;14.48;51.44;101133.88;10465746;28;20135;-67
2022/07/08 01:51:30;;;;;;;9.43;2.20;;;;;;;14.59;51.38;101141.19;10465820;28;20049;-66
2022/07/08 01:56:32;;;;;;;7.63;2.28;;;;;;;14.59;51.06;101142.03;10462126;28;20133;-67
2022/07/08 02:01:34;;;;;;;9.00;2.10;;;;;;;14.61;50.77;101143.75;10447497;28;20126;-66
2022/07/08 02:06:36;;;;;;;10.18;2.28;;;;;;;14.62;51.31;101146.28;10472636;28;20062;-66
2022/07/08 02:16:58;;;;;;;7.85;2.30;;;;;;;14.36;52.24;101155.63;10472417;28;20516;-66
2022/07/08 02:22:00;;;;;;;7.60;2.20;;;;;;;14.20;52.53;101157.41;10472454;28;20084;-66
2022/07/08 02:27:03;;;;;;;9.15;2.30;;;;;;;14.10;52.57;101161.50;10473376;28;20539;-66
2022/07/08 02:32:05;;;;;;;8.70;2.53;;;;;;;13.93;53.37;101163.31;10471333;28;20171;-66
2022/07/08 02:37:07;;;;;;;10.52;2.50;;;;;;;13.68;54.25;101166.41;10473285;28;20105;-66
2022/07/08 02:42:09;;;;;;;6.28;2.10;;;;;;;13.57;54.71;101174.03;10470691;28;20090;-67
2022/07/08 02:47:11;;;;;;;9.27;2.38;;;;;;;13.57;54.60;101168.78;10470762;28;20099;-66
2022/07/08 02:52:12;;;;;;;10.30;2.38;;;;;;;13.69;54.29;101168.13;10470744;28;20129;-65
2022/07/08 02:57:14;;;;;;;7.82;2.35;;;;;;;13.83;54.24;101164.75;10471981;28;20092;-66
2022/07/08 03:02:16;;;;;;;7.88;2.20;;;;;;;13.96;54.17;101174.53;10472457;28;20080;-64
2022/07/08 03:07:18;;;;;;;8.05;2.20;;;;;;;14.05;54.22;101171.41;10469763;28;20143;-65
2022/07/08 03:12:20;;;;;;;10.55;2.38;;;;;;;14.13;54.19;101163.09;10471697;28;20127;-65
2022/07/08 03:17:22;;;;;;;10.02;2.55;;;;;;;14.21;54.02;101166.13;10471828;28;20110;-65
2022/07/08 03:22:23;;;;;;;8.70;2.13;;;;;;;14.27;54.08;101160.53;10453367;28;20846;-65
2022/07/08 03:27:25;;;;;;;6.65;1.80;;;;;;;14.31;54.29;101164.69;10471578;28;20052;-65
2022/07/08 03:32:28;;;;;;;6.80;2.08;;;;;;;14.33;53.82;101182.09;10470347;28;20186;-65
2022/07/08 03:37:29;;;;;;;7.55;1.98;;;;;;;14.41;53.88;101173.81;10471708;28;20086;-64
2022/07/08 03:42:31;;;;;;;9.90;2.35;;;;;;;14.52;53.79;101176.69;10453924;28;20140;-64
2022/07/08 03:47:34;;;;;;;7.15;2.10;;;;;;;14.58;53.29;101178.97;10468568;28;20156;-66
2022/07/08 03:52:36;;;;;;;11.45;2.63;;;;;;;14.64;53.20;101176.00;10468977;28;20072;-66
2022/07/08 03:57:38;;;;;;;10.52;2.70;;;;;;;14.67;53.16;101174.97;10468481;28;20080;-67
2022/07/08 04:02:39;;;;;;;6.55;1.83;;;;;;;14.63;52.60;101181.34;10470104;28;20056;-67
2022/07/08 04:07:41;;;;;;;8.02;2.05;;;;;;;14.72;52.27;101180.81;10471072;28;20096;-66
2022/07/08 04:12:49;;;;;;;7.68;2.03;;;;;;;14.79;52.83;101187.44;10470601;28;20045;-66
2022/07/08 04:17:52;;;;;;;6.45;2.10;;;;;;;14.74;52.80;101192.97;10466956;28;20128;-67
2022/07/08 04:22:54;;;;;;;6.53;2.10;;;;;;;14.71;53.26;101203.69;10468732;28;20831;-66
2022/07/08 04:27:56;;;;;;;7.93;2.20;;;;;;;14.79;53.01;101205.88;10467918;28;20617;-66
2022/07/08 04:32:57;;;;;;;12.45;2.08;;;;;;;14.86;53.02;101217.78;10452496;28;20056;-67
2022/07/08 04:37:59;;;;;;;7.35;1.80;;;;;;;14.95;52.42;101207.56;10469443;28;20072;-66
2022/07/08 04:43:02;;;;;;;12.95;2.75;;;;;;;15.14;52.32;101215.25;10467685;28;20041;-66
2022/07/08 04:48:04;;;;;;;9.88;1.95;;;;;;;15.12;51.87;101217.94;10466933;28;20675;-67
2022/07/08 04:53:05;;;;;;;9.07;2.03;;;;;;;15.23;51.60;101227.88;10433132;28;20090;-67
2022/07/08 04:58:07;;;;;;;11.18;2.25;;;;;;;15.32;50.99;101224.72;10464015;28;20547;-66
2022/07/08 05:03:09;;;;;;;8.88;2.00;;;;;;;15.37;49.70;101234.03;10447544;28;20044;-66
2022/07/08 05:08:11;;;;;;;9.00;1.90;;;;;;;15.54;48.86;101238.34;10449241;28;20056;-66
2022/07/08 05:13:13;;;;;;;8.88;2.33;;;;;;;15.63;48.54;101248.34;10468260;28;20492;-66
2022/07/08 05:18:14;;;;;;;12.93;2.00;;;;;;;15.52;48.40;101249.91;10465786;28;20092;-67
2022/07/08 05:23:16;;;;;;;9.05;2.20;;;;;;;15.56;48.22;101249.66;10465960;28;20044;-66
2022/07/08 05:28:18;;;;;;;8.32;2.03;;;;;;;15.74;47.26;101255.59;10459740;28;20239;-67
2022/07/08 05:33:20;;;;;;;6.65;1.80;;;;;;;15.84;47.21;101272.56;10464676;28;20090;-66
2022/07/08 05:38:22;;;;;;;6.68;1.88;;;;;;;15.96;46.77;101267.41;10464875;28;20178;-66
2022/07/08 05:43:23;;;;;;;10.80;1.88;;;;;;;16.00;46.33;101268.91;10467097;28;20467;-66
2022/07/08 05:48:28;;;;;;;6.38;1.95;;;;;;;16.12;46.13;101272.63;10464362;28;20458;-66
2022/07/08 05:53:30;;;;;;;6.70;2.00;;;;;;;16.28;45.95;101277.78;10466679;28;20404;-67
2022/07/08 05:58:32;;;;;;;7.80;2.20;;;;;;;16.38;45.30;101289.47;10462963;28;20095;-66
2022/07/08 06:03:33;;;;;;;11.18;1.92;;;;;;;16.55;44.94;101290.13;10464458;28;20056;-65
2022/07/08 06:08:35;;;;;;;11.70;2.50;;;;;;;16.74;44.60;101289.81;10459614;28;20053;-67
2022/07/08 06:13:37;;;;;;;8.48;2.00;;;;;;;16.76;44.16;101301.13;10466875;28;20117;-66
2022/07/08 06:18:45;;;;;;;8.90;2.20;;;;;;;17.00;43.65;101304.84;10461826;28;20665;-66
2022/07/08 06:23:47;;;;;;;9.23;1.95;;;;;;;17.26;43.24;101305.81;10464729;28;20489;-66
2022/07/08 06:28:49;;;;;;;8.68;1.80;;;;;;;17.63;42.54;101295.34;10465924;28;20086;-67
2022/07/08 06:33:57;;;;;;;9.13;2.17;;;;;;;18.23;41.10;101300.06;10448236;28;20131;-66
2022/07/08 06:38:59;;;;;;;9.95;2.20;;;;;;;18.36;40.15;101303.56;10463207;28;20592;-66
2022/07/08 06:44:04;;;;;;;9.40;1.75;;;;;;;18.53;39.97;101301.38;10471637;28;20041;-67
2022/07/08 06:49:06;;;;;;;6.93;2.22;;;;;;;18.87;39.87;101305.09;10472809;28;20133;-65
2022/07/08 06:59:29;;;;;;;8.02;1.98;;;;;;;18.80;39.22;101297.72;10471989;28;20864;-66
2022/07/08 07:04:50;;;;;;;8.60;2.30;;;;;;;18.98;38.73;101281.31;10439970;28;20052;-66
2022/07/08 07:09:52;;;;;;;8.80;2.25;;;;;;;19.48;37.98;101277.59;10467149;28;20540;-66
2022/07/08 07:14:54;;;;;;;7.90;2.13;;;;;;;19.93;37.17;101283.88;10471668;28;20127;-67
2022/07/08 07:19:57;;;;;;;6.50;2.00;;;;;;;20.12;37.13;101292.09;10471399;28;20127;-66
2022/07/08 07:25:01;;;;;;;8.00;2.17;;;;;;;19.77;37.14;101294.78;10469626;28;20345;-67
2022/07/08 07:30:07;;;;;;;5.85;1.63;;;;;;;19.53;37.32;101293.16;10470854;28;20332;-66
2022/07/08 07:35:09;;;;;;;6.22;1.70;;;;;;;18.72;38.09;101300.94;10447688;28;20124;-66
2022/07/08 07:40:10;;;;;;;7.28;1.90;;;;;;;19.86;36.50;101298.59;10472428;28;20492;-66
2022/07/08 07:45:12;;;;;;;5.85;1.50;;;;;;;22.87;32.72;101277.63;10470540;28;20129;-66
2022/07/08 07:50:14;;;;;;;7.55;2.10;;;;;;;23.69;30.51;101281.59;10471104;28;20066;-66
2022/07/08 07:55:16;;;;;;;8.73;1.83;;;;;;;24.44;29.73;101278.00;10464684;28;20051;-67
2022/07/08 08:00:18;;;;;;;7.78;1.98;;;;;;;23.89;29.51;101285.91;10468732;28;20557;-66
2022/07/08 08:05:22;;;;;;;7.47;1.90;;;;;;;24.71;29.28;101286.91;10470066;28;20159;-67
2022/07/08 08:10:24;;;;;;;6.22;1.80;;;;;;;25.87;26.95;101282.28;10460991;28;20204;-66
2022/07/08 08:15:29;;;;;;;7.30;1.83;;;;;;;24.01;28.81;101297.25;10459077;28;20754;-66
2022/07/08 08:20:31;;;;;;;8.73;2.03;;;;;;;22.35;30.87;101308.03;10461293;28;20052;-66
2022/07/08 08:25:33;;;;;;;5.63;1.77;;;;;;;21.50;32.57;101322.47;10462131;28;20147;-67
2022/07/08 08:30:35;;;;;;;6.50;2.00;;;;;;;23.84;29.68;101301.53;10459427;28;20265;-66
2022/07/08 08:35:37;;;;;;;5.65;1.83;;;;;;;24.74;27.40;101301.78;10440642;28;20135;-65
2022/07/08 08:40:41;;;;;;;6.25;1.60;;;;;;;24.36;28.31;101294.78;10462850;28;21441;-66
2022/07/08 08:45:43;;;;;;;10.50;2.13;;;;;;;23.07;29.57;101302.50;10460709;28;20144;-66
2022/07/08 08:50:56;;;;;;;10.90;2.20;;;;;;;23.56;29.57;101293.56;10462760;28;20331;-66
2022/07/08 08:56:00;;;;;;;8.65;2.22;;;;;;;25.01;28.65;101293.75;10460506;28;20503;-66
2022/07/08 09:01:02;;;;;;;6.68;2.00;;;;;;;25.71;27.67;101287.53;10462498;28;20037;-66
2022/07/08 09:06:05;;;;;;;5.50;1.73;;;;;;;25.28;27.57;101290.16;10454484;28;20059;-66
2022/07/08 09:11:07;;;;;;;6.57;1.80;;;;;;;23.10;30.18;101289.75;10453428;28;20052;-66
2022/07/08 09:16:09;;;;;;;6.80;1.60;;;;;;;23.44;29.97;101292.88;10448009;28;20119;-65
2022/07/08 09:21:12;;;;;;;6.20;1.67;;;;;;;24.69;27.40;101282.66;10403319;28;20621;-68
2022/07/08 09:26:14;;;;;;;7.35;1.88;;;;;;;25.57;27.57;101278.22;10428851;28;20139;-67
2022/07/08 09:31:16;;;;;;;5.05;1.60;;;;;;;25.37;27.20;101281.22;10416927;28;20131;-66
2022/07/08 09:36:18;;;;;;;6.95;1.90;;;;;;;24.88;28.04;101277.19;10436485;28;20052;-67
2022/07/08 09:41:21;;;;;;;7.00;1.80;;;;;;;25.16;27.27;101276.16;10434192;28;20161;-67
2022/07/08 09:46:35;;;;;;;7.25;1.73;;;;;;;24.96;27.35;101278.13;10436684;28;20139;-67
2022/07/08 09:51:37;;;;;;;6.78;2.00;;;;;;;25.19;27.37;101275.00;10412080;28;20053;-68
2022/07/08 09:56:39;;;;;;;7.32;1.92;;;;;;;25.54;26.79;101264.28;10442444;28;20048;-69
2022/07/08 10:01:40;;;;;;;8.85;1.92;;;;;;;25.58;26.70;101274.53;10431561;28;20127;-69
2022/07/08 10:06:43;;;;;;;7.43;2.00;;;;;;;25.75;26.99;101265.59;10424580;28;20067;-69
2022/07/08 10:11:47;;;;;;;6.28;1.85;;;;;;;25.61;27.39;101268.88;10447070;28;20143;-69
2022/07/08 10:16:49;;;;;;;9.35;2.05;;;;;;;25.71;27.40;101266.94;10446550;28;20113;-70
2022/07/08 10:21:54;;;;;;;5.82;1.80;;;;;;;24.87;27.45;101276.38;10453953;28;20102;-69
2022/07/08 10:27:00;;;;;;;10.15;2.35;;;;;;;24.89;27.94;101278.91;10455921;28;20230;-69
2022/07/08 10:32:03;;;;;;;8.25;2.10;;;;;;;24.99;27.77;101274.31;10468391;28;20190;-68
2022/07/08 10:37:05;;;;;;;7.78;2.30;;;;;;;24.84;27.14;101279.34;10448509;28;20076;-69
2022/07/08 10:42:08;;;;;;;5.95;1.70;;;;;;;24.62;27.70;101269.03;10469267;28;20138;-69
2022/07/08 10:47:22;;;;;;;8.32;1.95;;;;;;;24.68;27.66;101264.91;10467057;28;20041;-69
2022/07/08 10:52:32;;;;;;;6.65;1.60;;;;;;;24.46;29.30;101274.19;10468321;28;20049;-68
2022/07/08 10:57:35;;;;;;;;;;;;;;;23.56;30.06;101257.00;10467619;28;20137;-69
2022/07/08 11:02:41;;;;;;;6.95;1.95;;;;;;;23.67;29.78;101251.53;10467503;28;19939;-68
2022/07/08 11:07:43;;;;;;;7.18;2.15;;;;;;;22.56;30.85;101260.81;10465704;28;20119;-69
2022/07/08 11:12:47;;;;;;;7.25;1.95;;;;;;;22.82;31.73;101247.03;10467308;28;20076;-68
2022/07/08 11:17:50;;;;;;;7.35;1.90;;;;;;;22.90;31.24;101255.19;10463977;28;20048;-69
2022/07/08 11:22:52;;;;;;;6.15;1.95;;;;;;;22.65;31.79;101252.03;10449281;28;20045;-69
2022/07/08 11:27:54;;;;;;;9.55;2.00;;;;;;;22.95;31.63;101244.91;10462618;28;20059;-69
2022/07/08 11:32:55;;;;;;;6.18;1.80;;;;;;;22.98;31.61;101248.16;10466915;28;20749;-68
2022/07/08 11:37:57;;;;;;;5.60;1.83;;;;;;;23.12;31.42;101245.09;10466174;28;20086;-68
2022/07/08 11:42:59;;;;;;;7.20;1.92;;;;;;;23.35;30.42;101240.31;10465551;28;20149;-68
2022/07/08 11:48:07;;;;;;;7.38;1.90;;;;;;;23.57;30.71;101242.69;10465363;28;20078;-68
2022/07/08 11:53:22;;;;;;;9.18;1.90;;;;;;;23.79;30.59;101239.69;10464968;28;20131;-68
2022/07/08 11:58:24;;;;;;;8.80;2.20;;;;;;;23.53;31.18;101241.28;10448566;28;20044;-69
2022/07/08 12:03:27;;;;;;;7.45;1.70;;;;;;;23.67;31.21;101231.97;10464316;28;20128;-69
2022/07/08 12:08:32;;;;;;;6.38;1.83;;;;;;;23.45;31.10;101222.47;10463253;28;20505;-69
2022/07/08 12:13:42;;;;;;;4.80;1.85;;;;;;;23.16;31.53;101214.47;10466445;28;20052;-70
2022/07/08 12:18:44;;;;;;;5.30;1.90;;;;;;;23.11;32.01;101215.84;10464032;28;20054;-69
2022/07/08 12:23:58;;;;;;;8.07;2.33;;;;;;;23.36;31.76;101215.28;10447986;28;20493;-68
2022/07/08 12:29:12;;;;;;;6.65;2.08;;;;;;;23.41;31.12;101210.38;10462087;28;20048;-69
2022/07/08 12:34:19;;;;;;;4.72;1.70;;;;;;;23.33;32.02;101202.22;10446219;28;20152;-69
2022/07/08 12:39:22;;;;;;;10.27;2.50;;;;;;;23.78;31.08;101200.56;10463853;28;20151;-69
2022/07/08 12:44:41;;;;;;;7.35;1.92;;;;;;;23.62;31.83;101200.34;10462776;28;20127;-69
2022/07/08 12:49:48;;;;;;;6.60;1.75;;;;;;;23.88;31.61;101190.69;10463463;28;20139;-69
2022/07/08 12:54:50;;;;;;;8.10;1.95;;;;;;;24.15;30.95;101181.88;10462876;28;20044;-69
2022/07/08 12:59:51;;;;;;;7.03;2.20;;;;;;;24.41;30.68;101182.84;10444506;28;20526;-68
2022/07/08 13:04:53;;;;;;;5.80;2.05;;;;;;;24.62;30.52;101171.88;10443397;28;20102;-67
2022/07/08 13:09:55;;;;;;;6.63;1.98;;;;;;;24.65;30.32;101180.47;10445987;28;20531;-67
2022/07/08 13:14:57;;;;;;;5.65;1.95;;;;;;;24.43;31.10;101170.16;10462415;28;20276;-66
2022/07/08 13:19:59;;;;;;;5.85;1.70;;;;;;;23.93;31.25;101166.22;10462467;28;20692;-67
2022/07/08 13:25:01;;;;;;;7.45;2.00;;;;;;;24.23;31.58;101176.63;10434693;28;20224;-67
2022/07/08 13:30:06;;;;;;;6.50;1.98;;;;;;;24.67;30.63;101166.94;10459853;28;20056;-67
2022/07/08 13:35:08;;;;;;;6.82;1.98;;;;;;;24.90;30.37;101152.94;10443197;28;20055;-67
2022/07/08 13:40:11;;;;;;;10.50;2.13;;;;;;;25.22;30.22;101156.91;10460902;28;20052;-68
2022/07/08 13:45:13;;;;;;;6.45;1.90;;;;;;;25.43;30.34;101149.34;10463036;28;20052;-68
2022/07/08 13:50:15;;;;;;;6.95;1.95;;;;;;;25.66;29.30;101147.81;10461225;28;20159;-68
2022/07/08 13:55:16;;;;;;;6.95;1.80;;;;;;;25.83;29.66;101149.59;10462553;28;20546;-68
2022/07/08 14:00:18;;;;;;;7.45;2.10;;;;;;;25.55;29.71;101143.56;10460754;28;20106;-69
2022/07/08 14:05:20;;;;;;;6.95;1.70;;;;;;;25.32;30.19;101153.13;10444253;28;20155;-68
2022/07/08 14:10:22;;;;;;;8.05;2.03;;;;;;;25.33;30.29;101144.06;10461316;28;20124;-69
2022/07/08 14:15:24;;;;;;;5.72;2.13;;;;;;;25.67;29.91;101142.28;10460830;28;20483;-69
2022/07/08 14:20:26;;;;;;;4.68;1.90;;;;;;;25.60;30.00;101141.28;10461590;28;20052;-69
2022/07/08 14:25:28;;;;;;;4.30;1.85;;;;;;;25.67;30.04;101142.28;10451672;28;20278;-69
2022/07/08 14:30:29;;;;;;;4.93;1.60;;;;;;;25.72;30.34;101133.78;10436249;28;20131;-69
2022/07/08 14:35:31;;;;;;;5.40;1.80;;;;;;;26.09;29.82;101144.19;10461991;28;20131;-69
2022/07/08 14:40:37;;;;;;;5.85;1.80;;;;;;;26.10;29.66;101138.66;10459889;28;20102;-69
2022/07/08 14:45:39;;;;;;;5.68;1.55;;;;;;;26.53;29.25;101132.22;10443761;28;20057;-69
2022/07/08 14:50:41;;;;;;;5.88;2.42;;;;;;;26.67;28.93;101129.75;10460043;28;20072;-68
2022/07/08 14:55:43;;;;;;;5.95;1.70;;;;;;;26.55;29.14;101131.09;10440562;28;20059;-68
2022/07/08 15:00:44;;;;;;;7.05;1.80;;;;;;;26.40;29.64;101137.25;10457121;28;20080;-68
2022/07/08 15:05:46;;;;;;;5.53;1.75;;;;;;;26.40;29.64;101129.19;10448563;28;20139;-68
2022/07/08 15:10:49;;;;;;;5.57;1.65;;;;;;;26.07;29.79;101138.16;10466311;28;20133;-68
2022/07/08 15:15:50;;;;;;;8.52;1.80;;;;;;;26.33;29.68;101123.66;10433474;28;20064;-69
2022/07/08 15:20:52;;;;;;;8.43;1.80;;;;;;;26.32;29.71;101111.22;10423835;28;20049;-69
2022/07/08 15:25:55;;;;;;;7.93;1.90;;;;;;;26.16;29.86;101111.19;10439163;28;20049;-71
2022/07/08 15:30:57;;;;;;;5.05;1.60;;;;;;;26.08;30.16;101108.50;10445319;28;20135;-71
2022/07/08 15:36:05;;;;;;;4.75;1.50;;;;;;;26.24;29.87;101095.13;10425742;28;20413;-70
2022/07/08 15:41:09;;;;;;;5.15;1.60;;;;;;;26.25;30.09;101101.34;10444424;28;20048;-71
2022/07/08 15:46:10;;;;;;;8.15;1.67;;;;;;;26.23;30.21;101095.28;10419793;28;20145;-70
2022/07/08 15:51:12;;;;;;;4.90;1.70;;;;;;;26.10;30.48;101097.63;10448442;28;20131;-71
2022/07/08 15:56:14;;;;;;;4.57;1.55;;;;;;;26.09;30.67;101095.94;10451306;28;20055;-71
2022/07/08 16:01:16;;;;;;;5.78;1.58;;;;;;;26.17;30.99;101098.63;10447699;28;20040;-71
2022/07/08 16:06:18;;;;;;;4.85;1.70;;;;;;;25.91;30.95;101093.34;10450517;28;20090;-68
2022/07/08 16:11:21;;;;;;;3.60;1.50;;;;;;;25.65;31.44;101081.84;10445144;28;20048;-68
2022/07/08 16:16:26;;;;;;;5.60;1.85;;;;;;;25.52;31.58;101084.13;10445687;28;20052;-71
2022/07/08 16:21:28;;;;;;;5.90;1.58;;;;;;;25.75;31.51;101071.84;10445952;28;20737;-68
2022/07/08 16:26:30;;;;;;;9.73;1.88;;;;;;;25.80;31.52;101075.72;10439724;28;20142;-68
2022/07/08 16:31:32;;;;;;;5.68;1.70;;;;;;;25.42;31.77;101084.25;10438648;28;20472;-70
2022/07/08 16:36:36;;;;;;;3.88;1.65;;;;;;;25.48;31.99;101077.41;10417520;28;21150;-69
2022/07/08 16:41:38;;;;;;;6.32;1.95;;;;;;;25.56;31.98;101078.28;10434859;28;20508;-70
2022/07/08 16:46:40;;;;;;;5.90;1.70;;;;;;;25.58;32.20;101078.13;10445530;28;20056;-70
2022/07/08 16:51:42;;;;;;;8.13;1.90;;;;;;;25.49;32.25;101079.91;10449692;28;20048;-70
2022/07/08 16:56:45;;;;;;;6.97;1.70;;;;;;;25.49;32.33;101082.59;10419314;28;20074;-69
2022/07/08 17:01:51;;;;;;;10.02;1.73;;;;;;;25.55;32.39;101083.81;10438621;28;20098;-69
2022/07/08 17:06:54;;;;;;;5.15;2.00;;;;;;;25.42;32.71;101078.03;10437649;28;20052;-69
2022/07/08 17:11:55;;;;;;;7.13;1.92;;;;;;;25.41;32.47;101087.91;10433702;28;20048;-69
2022/07/08 17:16:57;;;;;;;5.63;1.83;;;;;;;25.34;33.03;101078.84;10431536;28;20063;-69
2022/07/08 17:22:01;;;;;;;7.03;1.80;;;;;;;25.36;33.24;101078.69;10439514;28;20052;-69
2022/07/08 17:27:03;;;;;;;4.47;1.85;;;;;;;24.96;33.61;101076.53;10445089;28;20570;-69
2022/07/08 17:32:05;;;;;;;5.90;1.55;;;;;;;24.76;34.17;101085.75;10422771;28;20108;-69
2022/07/08 17:37:07;;;;;;;6.03;1.70;;;;;;;24.50;34.61;101085.69;10444510;28;20616;-70
2022/07/08 17:42:10;;;;;;;4.70;1.30;;;;;;;24.36;34.71;101088.03;10446214;28;20453;-70
2022/07/08 17:47:12;;;;;;;3.88;1.23;;;;;;;24.35;34.73;101081.03;10446726;28;20507;-69
2022/07/08 17:52:17;;;;;;;4.25;1.40;;;;;;;24.10;35.05;101078.09;10424377;28;20045;-70
2022/07/08 17:57:19;;;;;;;4.03;1.40;;;;;;;24.06;35.52;101075.84;10423555;28;20135;-70
2022/07/08 18:02:21;;;;;;;5.18;1.38;;;;;;;23.98;35.65;101083.78;10447675;28;20049;-69
2022/07/08 18:07:23;;;;;;;4.35;1.52;;;;;;;23.98;35.96;101084.59;10439071;28;20116;-70
2022/07/08 18:12:24;;;;;;;6.70;1.35;;;;;;;23.99;36.28;101088.13;10441292;28;20158;-68
2022/07/08 18:17:28;;;;;;;4.05;1.50;;;;;;;23.99;36.23;101080.94;10459170;28;20825;-70
2022/07/08 18:22:29;;;;;;;7.03;1.65;;;;;;;23.73;37.07;101081.81;10444766;28;20730;-69
2022/07/08 18:27:32;;;;;;;4.72;1.73;;;;;;;23.47;37.31;101081.66;10463159;28;20052;-69
2022/07/08 18:32:34;;;;;;;8.00;1.80;;;;;;;23.43;37.27;101072.25;10461915;28;20054;-70
2022/07/08 18:37:36;;;;;;;5.40;1.75;;;;;;;23.38;37.71;101080.66;10465658;28;20044;-69
2022/07/08 18:42:38;;;;;;;4.10;1.60;;;;;;;23.23;38.00;101070.56;10471276;28;20490;-70
2022/07/08 18:47:42;;;;;;;7.05;1.52;;;;;;;23.15;38.37;101081.13;10471168;28;20055;-69
2022/07/08 18:52:44;;;;;;;5.97;2.08;;;;;;;23.00;38.54;101080.78;10429896;28;20041;-70
2022/07/08 18:57:46;;;;;;;5.72;1.65;;;;;;;22.89;38.79;101086.25;10469218;28;20051;-69
2022/07/08 19:02:49;;;;;;;4.53;1.80;;;;;;;22.76;39.02;101090.22;10470024;28;20058;-69
2022/07/08 19:07:51;;;;;;;6.63;1.70;;;;;;;22.54;39.29;101094.81;10450958;28;20049;-69
2022/07/08 19:12:53;;;;;;;4.88;1.75;;;;;;;22.36;39.84;101090.31;10469265;28;20400;-69
2022/07/08 19:17:55;;;;;;;6.85;1.70;;;;;;;22.21;40.35;101095.19;10469389;28;20052;-71
2022/07/08 19:22:58;;;;;;;4.22;1.55;;;;;;;22.11;40.65;101093.50;10468452;28;20040;-70
2022/07/08 19:28:00;;;;;;;4.32;1.60;;;;;;;21.93;41.10;101103.94;10468100;28;20056;-70
2022/07/08 19:33:01;;;;;;;4.80;1.70;;;;;;;21.78;41.62;101111.44;10451525;28;20055;-69
2022/07/08 19:38:03;;;;;;;5.22;1.80;;;;;;;21.63;41.92;101114.63;10466014;28;20270;-69
2022/07/08 19:43:05;;;;;;;4.57;2.00;;;;;;;21.47;42.36;101116.94;10468370;28;20569;-70
2022/07/08 19:48:07;;;;;;;7.95;1.90;;;;;;;21.25;42.97;101119.72;10467089;28;20060;-69
2022/07/08 19:53:09;;;;;;;5.07;1.40;;;;;;;21.03;43.58;101126.84;10469055;28;20045;-69
2022/07/08 19:58:12;;;;;;;4.10;1.70;;;;;;;20.86;44.17;101130.13;10467350;28;20597;-70
2022/07/08 20:03:14;;;;;;;5.75;1.70;;;;;;;20.69;44.52;101133.31;10450225;28;20119;-69
2022/07/08 20:08:16;;;;;;;9.50;1.75;;;;;;;20.49;45.02;101139.41;10466736;28;20143;-70
2022/07/08 20:13:20;;;;;;;6.03;1.80;;;;;;;20.27;46.03;101139.47;10461316;28;20504;-70
2022/07/08 20:18:22;;;;;;;6.22;1.95;;;;;;;20.05;46.36;101145.66;10468101;28;20485;-70
2022/07/08 20:23:24;;;;;;;6.18;2.10;;;;;;;19.90;46.96;101146.03;10467700;28;20100;-70
2022/07/08 20:28:25;;;;;;;5.97;1.90;;;;;;;19.79;47.04;101148.66;10459621;28;20145;-70
2022/07/08 20:33:27;;;;;;;7.85;2.38;;;;;;;19.63;47.50;101149.03;10452695;28;20129;-70
2022/07/08 20:38:29;;;;;;;4.53;1.80;;;;;;;19.51;47.70;101147.31;10465027;28;20049;-70
2022/07/08 20:43:31;;;;;;;5.53;1.90;;;;;;;19.24;48.31;101142.34;10444040;28;20060;-70
2022/07/08 20:48:33;;;;;;;10.65;2.10;;;;;;;19.05;48.89;101147.38;10448843;28;20135;-70
2022/07/08 20:53:36;;;;;;;5.68;2.00;;;;;;;18.90;49.17;101142.31;10466528;28;20044;-70
2022/07/08 20:58:38;;;;;;;9.63;2.20;;;;;;;18.81;49.62;101153.63;10467531;28;20095;-70
2022/07/08 21:03:39;;;;;;;4.38;2.10;;;;;;;18.79;49.79;101147.59;10466627;28;21065;-70
2022/07/08 21:08:42;;;;;;;7.43;2.20;;;;;;;18.69;49.97;101142.13;10467374;28;20060;-70
2022/07/08 21:13:44;;;;;;;7.65;2.30;;;;;;;18.67;50.14;101136.09;10467843;28;20090;-70
2022/07/08 21:18:45;;;;;;;5.80;2.35;;;;;;;18.62;50.38;101133.81;10446082;28;20060;-70
2022/07/08 21:23:48;;;;;;;4.57;2.20;;;;;;;18.59;50.66;101127.88;10467108;28;20056;-70
2022/07/08 21:28:49;;;;;;;7.50;2.40;;;;;;;18.51;50.91;101128.44;10447161;28;20145;-70
2022/07/08 21:33:51;;;;;;;5.28;2.30;;;;;;;18.38;51.09;101134.78;10467215;28;20088;-70
2022/07/08 21:38:53;;;;;;;7.32;2.47;;;;;;;18.21;51.78;101127.19;10467304;28;20229;-69
2022/07/08 21:43:55;;;;;;;6.72;2.13;;;;;;;18.17;51.60;101128.34;10465346;28;20451;-70
2022/07/08 21:48:57;;;;;;;5.78;2.20;;;;;;;18.12;51.64;101133.09;10446649;28;20539;-70
2022/07/08 21:53:59;;;;;;;8.65;2.40;;;;;;;18.07;51.76;101135.25;10437745;28;20478;-70
2022/07/08 21:59:00;;;;;;;4.63;2.10;;;;;;;18.00;51.87;101131.34;10448623;28;20459;-70
2022/07/08 22:04:03;;;;;;;6.80;2.30;;;;;;;17.97;52.24;101131.56;10466163;28;20048;-70
2022/07/08 22:09:05;;;;;;;6.28;2.40;;;;;;;17.88;52.38;101130.44;10447946;28;20056;-70
2022/07/08 22:14:11;;;;;;;8.43;2.53;;;;;;;17.85;52.64;101135.94;10472291;28;20052;-70
2022/07/08 22:19:12;;;;;;;4.15;2.20;;;;;;;17.80;52.91;101127.47;10474720;28;20072;-69
2022/07/08 22:24:14;;;;;;;4.60;2.30;;;;;;;17.78;52.59;101127.59;10474650;28;20135;-68
2022/07/08 22:29:16;;;;;;;7.38;2.72;;;;;;;17.74;52.42;101115.53;10474178;28;20819;-69
2022/07/08 22:34:17;;;;;;;5.63;2.30;;;;;;;17.64;52.95;101119.78;10475039;28;20109;-69
2022/07/08 22:39:19;;;;;;;6.43;2.50;;;;;;;17.56;53.12;101110.69;10473399;28;20129;-69
2022/07/08 22:44:22;;;;;;;6.18;2.40;;;;;;;17.46;53.14;101110.50;10473769;28;20059;-69
2022/07/08 22:49:23;;;;;;;8.60;2.40;;;;;;;17.41;53.57;101109.09;10472012;28;20052;-69
2022/07/08 22:54:25;;;;;;;7.32;2.50;;;;;;;17.31;53.78;101106.22;10473227;28;20094;-69
2022/07/08 22:59:27;;;;;;;6.95;2.40;;;;;;;17.18;53.84;101101.91;10472567;28;20148;-70
2022/07/08 23:04:29;;;;;;;6.75;3.08;;;;;;;16.98;54.60;101097.94;10471736;28;20526;-70
2022/07/08 23:09:31;;;;;;;5.00;2.90;;;;;;;16.89;54.75;101095.94;10471669;28;20543;-68
2022/07/08 23:14:33;;;;;;;5.90;2.60;;;;;;;16.81;55.15;101108.81;10473393;28;20138;-68
2022/07/08 23:19:35;;;;;;;5.75;2.83;;;;;;;16.81;54.99;101114.09;10471984;28;20048;-68